sensor_id;sensor_type;location;lat;lon;timestamp;pressure;altitude;pressure_sealevel;temperature;humidity
84615;BME280;74845;51.204;22.580;2024-03-02T00:00:27;99188.03;;;5.67;61.78
84615;BME280;74845;51.204;22.580;2024-03-02T00:02:54;99161.22;;;5.49;61.94
84615;BME280;74845;51.204;22.580;2024-03-02T00:05:22;99217.47;;;5.85;62.13
84615;BME280;74845;51.204;22.580;2024-03-02T00:07:54;99215.31;;;5.90;61.76
84615;BME280;74845;51.204;22.580;2024-03-02T00:10:25;99151.47;;;5.39;61.82
84615;BME280;74845;51.204;22.580;2024-03-02T00:12:56;99175.53;;;5.58;62.04
84615;BME280;74845;51.204;22.580;2024-03-02T00:18:14;99173.94;;;5.68;61.94
84615;BME280;74845;51.204;22.580;2024-03-02T00:20:43;99203.16;;;5.76;62.13
84615;BME280;74845;51.204;22.580;2024-03-02T00:23:16;99179.41;;;5.78;61.60
84615;BME280;74845;51.204;22.580;2024-03-02T00:25:46;99168.25;;;5.62;61.94
84615;BME280;74845;51.204;22.580;2024-03-02T00:28:17;99172.66;;;5.74;61.89
84615;BME280;74845;51.204;22.580;2024-03-02T00:30:54;99206.28;;;5.94;61.43
84615;BME280;74845;51.204;22.580;2024-03-02T00:33:22;99072.44;;;5.04;62.04
84615;BME280;74845;51.204;22.580;2024-03-02T00:35:50;99135.88;;;5.48;61.87
84615;BME280;74845;51.204;22.580;2024-03-02T00:38:17;99166.56;;;5.61;62.25
84615;BME280;74845;51.204;22.580;2024-03-02T00:40:44;99187.19;;;5.79;61.91
84615;BME280;74845;51.204;22.580;2024-03-02T00:46:20;99149.13;;;5.60;62.12
84615;BME280;74845;51.204;22.580;2024-03-02T00:49:03;99191.25;;;5.84;62.31
84615;BME280;74845;51.204;22.580;2024-03-02T00:51:31;99197.25;;;5.86;62.06
84615;BME280;74845;51.204;22.580;2024-03-02T00:54:01;99149.97;;;5.60;62.12
84615;BME280;74845;51.204;22.580;2024-03-02T00:56:31;99158.81;;;5.59;61.91
84615;BME280;74845;51.204;22.580;2024-03-02T00:58:58;99176.34;;;5.71;62.03
84615;BME280;74845;51.204;22.580;2024-03-02T01:01:25;99161.97;;;5.64;62.30
84615;BME280;74845;51.204;22.580;2024-03-02T01:03:54;99121.72;;;5.38;62.11
84615;BME280;74845;51.204;22.580;2024-03-02T01:06:21;99167.00;;;5.67;62.46
84615;BME280;74845;51.204;22.580;2024-03-02T01:08:49;99162.56;;;5.68;62.22
84615;BME280;74845;51.204;22.580;2024-03-02T01:11:19;99142.50;;;5.54;62.24
84615;BME280;74845;51.204;22.580;2024-03-02T01:13:50;99184.44;;;5.81;62.20
84615;BME280;74845;51.204;22.580;2024-03-02T01:16:17;99093.13;;;5.34;62.21
84615;BME280;74845;51.204;22.580;2024-03-02T01:18:44;99162.81;;;5.65;62.57
84615;BME280;74845;51.204;22.580;2024-03-02T01:21:11;99168.88;;;5.78;62.21
84615;BME280;74845;51.204;22.580;2024-03-02T01:23:38;99169.09;;;5.75;62.58
84615;BME280;74845;51.204;22.580;2024-03-02T01:26:05;99069.31;;;5.11;62.42
84615;BME280;74845;51.204;22.580;2024-03-02T01:28:32;99093.56;;;5.27;62.43
84615;BME280;74845;51.204;22.580;2024-03-02T01:30:59;99104.38;;;5.36;62.50
84615;BME280;74845;51.204;22.580;2024-03-02T01:33:25;99133.78;;;5.53;62.71
84615;BME280;74845;51.204;22.580;2024-03-02T01:35:52;99148.06;;;5.62;62.27
84615;BME280;74845;51.204;22.580;2024-03-02T01:38:19;99131.47;;;5.49;62.65
84615;BME280;74845;51.204;22.580;2024-03-02T01:40:47;99047.47;;;4.98;62.33
84615;BME280;74845;51.204;22.580;2024-03-02T01:43:13;99125.38;;;5.48;62.77
84615;BME280;74845;51.204;22.580;2024-03-02T01:45:40;99117.63;;;5.47;62.30
84615;BME280;74845;51.204;22.580;2024-03-02T01:48:07;99132.31;;;5.49;62.61
84615;BME280;74845;51.204;22.580;2024-03-02T01:50:34;99162.03;;;5.75;62.25
84615;BME280;74845;51.204;22.580;2024-03-02T01:53:02;99163.72;;;5.76;62.55
84615;BME280;74845;51.204;22.580;2024-03-02T01:55:29;99119.41;;;5.46;62.58
84615;BME280;74845;51.204;22.580;2024-03-02T01:57:57;99106.38;;;5.45;62.64
84615;BME280;74845;51.204;22.580;2024-03-02T02:00:25;99157.41;;;5.79;62.30
84615;BME280;74845;51.204;22.580;2024-03-02T02:02:54;99125.69;;;5.57;62.73
84615;BME280;74845;51.204;22.580;2024-03-02T02:05:21;99127.28;;;5.59;62.63
84615;BME280;74845;51.204;22.580;2024-03-02T02:07:48;99119.16;;;5.62;62.51
84615;BME280;74845;51.204;22.580;2024-03-02T02:10:15;99122.44;;;5.66;62.79
84615;BME280;74845;51.204;22.580;2024-03-02T02:12:42;99134.72;;;5.65;62.44
84615;BME280;74845;51.204;22.580;2024-03-02T02:15:29;99136.91;;;5.84;61.87
84615;BME280;74845;51.204;22.580;2024-03-02T02:17:57;99129.03;;;5.71;62.56
84615;BME280;74845;51.204;22.580;2024-03-02T02:20:24;99132.09;;;5.65;62.34
84615;BME280;74845;51.204;22.580;2024-03-02T02:22:59;99105.91;;;5.64;62.14
84615;BME280;74845;51.204;22.580;2024-03-02T02:25:27;99045.56;;;5.25;62.55
84615;BME280;74845;51.204;22.580;2024-03-02T02:27:55;99083.34;;;5.48;62.47
84615;BME280;74845;51.204;22.580;2024-03-02T02:30:32;99059.09;;;5.45;61.71
84615;BME280;74845;51.204;22.580;2024-03-02T02:32:59;99067.81;;;5.33;62.29
84615;BME280;74845;51.204;22.580;2024-03-02T02:35:26;99116.53;;;5.62;62.47
84615;BME280;74845;51.204;22.580;2024-03-02T02:37:55;99018.25;;;5.03;62.58
84615;BME280;74845;51.204;22.580;2024-03-02T02:40:23;99133.97;;;5.76;62.37
84615;BME280;74845;51.204;22.580;2024-03-02T02:42:50;99095.09;;;5.56;62.40
84615;BME280;74845;51.204;22.580;2024-03-02T02:45:19;99083.56;;;5.45;62.63
84615;BME280;74845;51.204;22.580;2024-03-02T02:47:46;99079.69;;;5.38;62.85
84615;BME280;74845;51.204;22.580;2024-03-02T02:50:13;99088.91;;;5.44;62.53
84615;BME280;74845;51.204;22.580;2024-03-02T02:52:41;99077.69;;;5.42;62.49
84615;BME280;74845;51.204;22.580;2024-03-02T02:55:10;99127.88;;;5.75;62.43
84615;BME280;74845;51.204;22.580;2024-03-02T02:57:39;99107.94;;;5.60;62.49
84615;BME280;74845;51.204;22.580;2024-03-02T03:00:10;99133.13;;;5.75;62.75
84615;BME280;74845;51.204;22.580;2024-03-02T03:02:41;99124.50;;;5.73;62.48
84615;BME280;74845;51.204;22.580;2024-03-02T03:05:10;99109.16;;;5.67;62.74
84615;BME280;74845;51.204;22.580;2024-03-02T03:07:37;99076.00;;;5.41;62.59
84615;BME280;74845;51.204;22.580;2024-03-02T03:10:07;99123.78;;;5.71;62.75
84615;BME280;74845;51.204;22.580;2024-03-02T03:12:35;99105.00;;;5.52;62.56
84615;BME280;74845;51.204;22.580;2024-03-02T03:15:03;99116.75;;;5.59;62.62
84615;BME280;74845;51.204;22.580;2024-03-02T03:17:31;99131.69;;;5.71;62.59
84615;BME280;74845;51.204;22.580;2024-03-02T03:19:58;99095.31;;;5.52;62.84
84615;BME280;74845;51.204;22.580;2024-03-02T03:22:25;99098.56;;;5.56;62.59
84615;BME280;74845;51.204;22.580;2024-03-02T03:24:52;99043.66;;;5.27;63.09
84615;BME280;74845;51.204;22.580;2024-03-02T03:27:19;99122.94;;;5.71;62.90
84615;BME280;74845;51.204;22.580;2024-03-02T03:29:46;99092.06;;;5.49;62.79
84615;BME280;74845;51.204;22.580;2024-03-02T03:32:14;99078.50;;;5.42;62.57
84615;BME280;74845;51.204;22.580;2024-03-02T03:34:41;99095.63;;;5.61;62.60
84615;BME280;74845;51.204;22.580;2024-03-02T03:37:07;99077.13;;;5.49;62.85
84615;BME280;74845;51.204;22.580;2024-03-02T03:39:34;99035.47;;;5.19;62.60
84615;BME280;74845;51.204;22.580;2024-03-02T03:42:04;99078.31;;;5.45;62.90
84615;BME280;74845;51.204;22.580;2024-03-02T03:44:31;99038.41;;;5.15;62.62
84615;BME280;74845;51.204;22.580;2024-03-02T03:46:58;99078.41;;;5.44;62.74
84615;BME280;74845;51.204;22.580;2024-03-02T03:49:25;99097.63;;;5.57;62.75
84615;BME280;74845;51.204;22.580;2024-03-02T03:51:52;99109.16;;;5.67;62.96
84615;BME280;74845;51.204;22.580;2024-03-02T03:54:18;99030.22;;;5.19;62.94
84615;BME280;74845;51.204;22.580;2024-03-02T03:56:45;99074.63;;;5.48;63.07
84615;BME280;74845;51.204;22.580;2024-03-02T03:59:12;99066.88;;;5.34;62.76
84615;BME280;74845;51.204;22.580;2024-03-02T04:01:39;99084.94;;;5.51;62.64
84615;BME280;74845;51.204;22.580;2024-03-02T04:04:06;99031.38;;;5.15;63.16
84615;BME280;74845;51.204;22.580;2024-03-02T04:06:33;99092.06;;;5.49;62.82
84615;BME280;74845;51.204;22.580;2024-03-02T04:09:00;99022.56;;;5.04;63.06
84615;BME280;74845;51.204;22.580;2024-03-02T04:11:27;99072.00;;;5.35;63.29
84615;BME280;74845;51.204;22.580;2024-03-02T04:13:54;99065.41;;;5.30;63.25
84615;BME280;74845;51.204;22.580;2024-03-02T04:16:24;98988.25;;;4.81;62.95
84615;BME280;74845;51.204;22.580;2024-03-02T04:18:51;99043.78;;;5.26;63.33
84615;BME280;74845;51.204;22.580;2024-03-02T04:21:17;99039.56;;;5.23;63.46
84615;BME280;74845;51.204;22.580;2024-03-02T04:23:44;99090.28;;;5.49;63.36
84615;BME280;74845;51.204;22.580;2024-03-02T04:26:11;99092.59;;;5.54;63.60
84615;BME280;74845;51.204;22.580;2024-03-02T04:28:38;99065.91;;;5.35;63.37
84615;BME280;74845;51.204;22.580;2024-03-02T04:31:04;99061.09;;;5.29;63.36
84615;BME280;74845;51.204;22.580;2024-03-02T04:33:31;99075.47;;;5.36;63.48
84615;BME280;74845;51.204;22.580;2024-03-02T04:35:58;99022.25;;;5.08;63.75
84615;BME280;74845;51.204;22.580;2024-03-02T04:38:25;99049.13;;;5.24;63.41
84615;BME280;74845;51.204;22.580;2024-03-02T04:40:52;99087.75;;;5.48;63.62
84615;BME280;74845;51.204;22.580;2024-03-02T04:43:19;99054.88;;;5.30;63.92
84615;BME280;74845;51.204;22.580;2024-03-02T04:45:45;99054.38;;;5.24;63.72
84615;BME280;74845;51.204;22.580;2024-03-02T04:48:12;99061.72;;;5.32;63.34
84615;BME280;74845;51.204;22.580;2024-03-02T04:50:40;99037.56;;;5.14;63.43
84615;BME280;74845;51.204;22.580;2024-03-02T04:53:07;99078.41;;;5.44;63.72
84615;BME280;74845;51.204;22.580;2024-03-02T04:55:34;99110.88;;;5.56;64.01
84615;BME280;74845;51.204;22.580;2024-03-02T04:58:01;99081.97;;;5.43;63.77
84615;BME280;74845;51.204;22.580;2024-03-02T05:00:28;99054.38;;;5.24;63.67
84615;BME280;74845;51.204;22.580;2024-03-02T05:02:55;99082.41;;;5.37;63.69
84615;BME280;74845;51.204;22.580;2024-03-02T05:05:22;99060.56;;;5.23;63.83
84615;BME280;74845;51.204;22.580;2024-03-02T05:07:49;99049.75;;;5.15;63.76
84615;BME280;74845;51.204;22.580;2024-03-02T05:10:16;99069.91;;;5.27;63.63
84615;BME280;74845;51.204;22.580;2024-03-02T05:12:42;99099.88;;;5.38;63.71
84615;BME280;74845;51.204;22.580;2024-03-02T05:15:11;99024.16;;;4.93;63.77
84615;BME280;74845;51.204;22.580;2024-03-02T05:17:39;99094.41;;;5.28;63.89
84615;BME280;74845;51.204;22.580;2024-03-02T05:20:07;99102.28;;;5.41;64.06
84615;BME280;74845;51.204;22.580;2024-03-02T05:22:37;98958.00;;;4.50;63.87
84615;BME280;74845;51.204;22.580;2024-03-02T05:25:05;99095.66;;;5.35;64.13
84615;BME280;74845;51.204;22.580;2024-03-02T05:27:32;99126.31;;;5.60;63.94
84615;BME280;74845;51.204;22.580;2024-03-02T05:30:00;99103.53;;;5.48;63.83
84615;BME280;74845;51.204;22.580;2024-03-02T05:32:27;99121.91;;;5.61;63.68
84615;BME280;74845;51.204;22.580;2024-03-02T05:34:54;99093.66;;;5.39;63.90
84615;BME280;74845;51.204;22.580;2024-03-02T05:37:21;99122.00;;;5.59;63.57
84615;BME280;74845;51.204;22.580;2024-03-02T05:39:48;99066.56;;;5.25;63.48
84615;BME280;74845;51.204;22.580;2024-03-02T05:42:16;99070.22;;;5.23;63.56
84615;BME280;74845;51.204;22.580;2024-03-02T05:44:45;99099.34;;;5.45;63.47
84615;BME280;74845;51.204;22.580;2024-03-02T05:47:12;99119.28;;;5.48;63.80
84615;BME280;74845;51.204;22.580;2024-03-02T05:49:39;99103.84;;;5.43;63.72
84615;BME280;74845;51.204;22.580;2024-03-02T05:52:06;99080.31;;;5.29;63.51
84615;BME280;74845;51.204;22.580;2024-03-02T05:54:33;99128.00;;;5.48;63.34
84615;BME280;74845;51.204;22.580;2024-03-02T05:57:00;99082.41;;;5.24;63.57
84615;BME280;74845;51.204;22.580;2024-03-02T05:59:44;99099.34;;;5.33;63.27
84615;BME280;74845;51.204;22.580;2024-03-02T06:02:11;99114.69;;;5.39;63.47
84615;BME280;74845;51.204;22.580;2024-03-02T06:04:38;99110.88;;;5.30;63.53
84615;BME280;74845;51.204;22.580;2024-03-02T06:07:04;99139.25;;;5.50;63.21
84615;BME280;74845;51.204;22.580;2024-03-02T06:09:32;99130.88;;;5.45;63.61
84615;BME280;74845;51.204;22.580;2024-03-02T06:11:58;99148.50;;;5.56;63.24
84615;BME280;74845;51.204;22.580;2024-03-02T06:14:25;98948.22;;;4.27;63.55
84615;BME280;74845;51.204;22.580;2024-03-02T06:16:52;99113.09;;;5.23;63.05
84615;BME280;74845;51.204;22.580;2024-03-02T06:19:19;99093.69;;;5.13;63.38
84615;BME280;74845;51.204;22.580;2024-03-02T06:21:45;99140.72;;;5.42;63.24
84615;BME280;74845;51.204;22.580;2024-03-02T06:24:12;99009.66;;;4.62;63.33
84615;BME280;74845;51.204;22.580;2024-03-02T06:26:39;99115.09;;;5.33;63.19
84615;BME280;74845;51.204;22.580;2024-03-02T06:29:06;99108.38;;;5.29;63.20
84615;BME280;74845;51.204;22.580;2024-03-02T06:31:34;99148.06;;;5.49;62.66
84615;BME280;74845;51.204;22.580;2024-03-02T06:34:01;99162.16;;;5.61;62.71
84615;BME280;74845;51.204;22.580;2024-03-02T06:36:30;99130.34;;;5.40;62.71
84615;BME280;74845;51.204;22.580;2024-03-02T06:38:57;99132.66;;;5.45;62.98
84615;BME280;74845;51.204;22.580;2024-03-02T06:41:24;99113.44;;;5.32;62.79
84615;BME280;74845;51.204;22.580;2024-03-02T06:43:50;99161.97;;;5.64;62.80
84615;BME280;74845;51.204;22.580;2024-03-02T06:46:21;99149.34;;;5.57;62.67
84615;BME280;74845;51.204;22.580;2024-03-02T06:48:47;99150.41;;;5.54;62.97
84615;BME280;74845;51.204;22.580;2024-03-02T06:51:14;99105.22;;;5.23;62.86
84615;BME280;74845;51.204;22.580;2024-03-02T06:53:42;99066.16;;;5.06;63.21
84615;BME280;74845;51.204;22.580;2024-03-02T06:56:09;99163.41;;;5.68;62.36
84615;BME280;74845;51.204;22.580;2024-03-02T06:58:36;99154.50;;;5.58;62.73
84615;BME280;74845;51.204;22.580;2024-03-02T07:01:02;99167.84;;;5.68;62.75
84615;BME280;74845;51.204;22.580;2024-03-02T07:03:29;99170.34;;;5.69;62.19
84615;BME280;74845;51.204;22.580;2024-03-02T07:05:56;99155.84;;;5.64;62.01
84615;BME280;74845;51.204;22.580;2024-03-02T07:08:23;99138.94;;;5.55;61.85
84615;BME280;74845;51.204;22.580;2024-03-02T07:10:50;99179.16;;;5.81;62.12
84615;BME280;74845;51.204;22.580;2024-03-02T07:13:17;99126.22;;;5.49;61.91
84615;BME280;74845;51.204;22.580;2024-03-02T07:15:44;99172.34;;;5.78;62.03
84615;BME280;74845;51.204;22.580;2024-03-02T07:18:33;99106.38;;;5.45;62.15
84615;BME280;74845;51.204;22.580;2024-03-02T07:21:01;99087.16;;;5.32;61.69
84615;BME280;74845;51.204;22.580;2024-03-02T07:23:28;99093.66;;;5.39;61.48
84615;BME280;74845;51.204;22.580;2024-03-02T07:25:55;99182.94;;;5.90;60.92
84615;BME280;74845;51.204;22.580;2024-03-02T07:28:26;99144.59;;;5.74;61.38
84615;BME280;74845;51.204;22.580;2024-03-02T07:31:03;99161.59;;;5.94;61.23
84615;BME280;74845;51.204;22.580;2024-03-02T07:33:31;99110.03;;;5.55;60.94
84615;BME280;74845;51.204;22.580;2024-03-02T07:35:59;99160.34;;;5.87;61.18
84615;BME280;74845;51.204;22.580;2024-03-02T07:38:31;99161.19;;;5.88;60.99
84615;BME280;74845;51.204;22.580;2024-03-02T07:40:59;99168.41;;;5.97;60.55
84615;BME280;74845;51.204;22.580;2024-03-02T07:43:26;99080.19;;;5.43;61.03
84615;BME280;74845;51.204;22.580;2024-03-02T07:45:54;99139.84;;;5.79;60.57
84615;BME280;74845;51.204;22.580;2024-03-02T07:48:21;99122.31;;;5.67;60.92
84615;BME280;74845;51.204;22.580;2024-03-02T07:50:48;99179.75;;;6.10;60.89
84615;BME280;74845;51.204;22.580;2024-03-02T07:53:14;99134.59;;;5.79;60.53
84615;BME280;74845;51.204;22.580;2024-03-02T07:55:42;99177.22;;;6.08;60.97
84615;BME280;74845;51.204;22.580;2024-03-02T07:58:08;99166.09;;;6.05;60.90
84615;BME280;74845;51.204;22.580;2024-03-02T08:00:35;99087.03;;;5.59;60.69
84615;BME280;74845;51.204;22.580;2024-03-02T08:03:03;99162.91;;;6.13;60.74
84615;BME280;74845;51.204;22.580;2024-03-02T08:05:30;99140.00;;;6.02;60.44
84615;BME280;74845;51.204;22.580;2024-03-02T08:07:57;99146.84;;;6.04;60.39
84615;BME280;74845;51.204;22.580;2024-03-02T08:10:23;99167.63;;;6.20;60.23
84615;BME280;74845;51.204;22.580;2024-03-02T08:12:50;99140.41;;;6.08;60.28
84615;BME280;74845;51.204;22.580;2024-03-02T08:15:17;99139.34;;;6.11;60.24
84615;BME280;74845;51.204;22.580;2024-03-02T08:17:44;99183.69;;;6.41;60.15
84615;BME280;74845;51.204;22.580;2024-03-02T08:20:15;99175.19;;;6.38;59.98
84615;BME280;74845;51.204;22.580;2024-03-02T08:22:42;99159.31;;;6.26;60.11
84615;BME280;74845;51.204;22.580;2024-03-02T08:25:09;99148.50;;;6.18;60.14
84615;BME280;74845;51.204;22.580;2024-03-02T08:27:36;99172.56;;;6.38;60.19
84615;BME280;74845;51.204;22.580;2024-03-02T08:30:04;99167.19;;;6.39;59.72
84615;BME280;74845;51.204;22.580;2024-03-02T08:32:33;99156.66;;;6.39;59.74
84615;BME280;74845;51.204;22.580;2024-03-02T08:35:00;99123.75;;;6.21;60.15
84615;BME280;74845;51.204;22.580;2024-03-02T08:37:27;99166.72;;;6.45;59.66
84615;BME280;74845;51.204;22.580;2024-03-02T08:39:54;99125.25;;;6.25;59.47
84615;BME280;74845;51.204;22.580;2024-03-02T08:42:22;99168.09;;;6.51;59.61
84615;BME280;74845;51.204;22.580;2024-03-02T08:44:49;99152.94;;;6.42;59.72
84615;BME280;74845;51.204;22.580;2024-03-02T08:47:16;99124.41;;;6.24;59.55
84615;BME280;74845;51.204;22.580;2024-03-02T08:49:43;99180.22;;;6.65;59.49
84615;BME280;74845;51.204;22.580;2024-03-02T08:52:10;99163.81;;;6.61;59.34
84615;BME280;74845;51.204;22.580;2024-03-02T08:54:37;99151.53;;;6.49;59.51
84615;BME280;74845;51.204;22.580;2024-03-02T08:57:05;99185.53;;;6.76;59.73
84615;BME280;74845;51.204;22.580;2024-03-02T08:59:32;99198.34;;;6.80;59.51
84615;BME280;74845;51.204;22.580;2024-03-02T09:01:59;99049.34;;;5.95;59.63
84615;BME280;74845;51.204;22.580;2024-03-02T09:04:26;99197.00;;;6.75;59.21
84615;BME280;74845;51.204;22.580;2024-03-02T09:06:56;99115.25;;;6.41;59.28
84615;BME280;74845;51.204;22.580;2024-03-02T09:09:23;99179.22;;;6.78;59.23
84615;BME280;74845;51.204;22.580;2024-03-02T09:11:50;99158.09;;;6.67;59.18
84615;BME280;74845;51.204;22.580;2024-03-02T09:14:17;99163.28;;;6.80;58.65
84615;BME280;74845;51.204;22.580;2024-03-02T09:16:43;99142.94;;;6.71;58.67
84615;BME280;74845;51.204;22.580;2024-03-02T09:19:10;99120.97;;;6.59;59.02
84615;BME280;74845;51.204;22.580;2024-03-02T09:21:37;99166.81;;;6.92;59.09
84615;BME280;74845;51.204;22.580;2024-03-02T09:24:04;99134.44;;;6.78;58.98
84615;BME280;74845;51.204;22.580;2024-03-02T09:26:33;99190.81;;;7.11;58.67
84615;BME280;74845;51.204;22.580;2024-03-02T09:29:00;99172.72;;;7.06;58.85
84615;BME280;74845;51.204;22.580;2024-03-02T09:31:27;99079.19;;;6.54;58.57
84615;BME280;74845;51.204;22.580;2024-03-02T09:33:53;99094.78;;;6.69;58.93
84615;BME280;74845;51.204;22.580;2024-03-02T09:36:22;99096.97;;;6.75;59.03
84615;BME280;74845;51.204;22.580;2024-03-02T09:38:49;99171.69;;;7.20;58.53
84615;BME280;74845;51.204;22.580;2024-03-02T09:41:16;99134.03;;;7.07;58.35
84615;BME280;74845;51.204;22.580;2024-03-02T09:43:43;99168.59;;;7.37;58.07
84615;BME280;74845;51.204;22.580;2024-03-02T09:46:10;99097.03;;;6.97;58.30
84615;BME280;74845;51.204;22.580;2024-03-02T09:48:38;99153.75;;;7.36;57.94
84615;BME280;74845;51.204;22.580;2024-03-02T09:51:05;99003.63;;;6.56;57.53
84615;BME280;74845;51.204;22.580;2024-03-02T09:53:33;99172.72;;;7.64;57.43
84615;BME280;74845;51.204;22.580;2024-03-02T09:56:00;99158.31;;;7.57;57.65
84615;BME280;74845;51.204;22.580;2024-03-02T09:58:28;99154.25;;;7.64;57.13
84615;BME280;74845;51.204;22.580;2024-03-02T10:00:55;99146.84;;;7.69;56.86
84615;BME280;74845;51.204;22.580;2024-03-02T10:03:23;99177.06;;;7.98;57.25
84615;BME280;74845;51.204;22.580;2024-03-02T10:05:51;99139.75;;;7.81;56.82
84615;BME280;74845;51.204;22.580;2024-03-02T10:08:18;99160.25;;;8.00;56.62
84615;BME280;74845;51.204;22.580;2024-03-02T10:10:45;99108.00;;;7.71;56.87
84615;BME280;74845;51.204;22.580;2024-03-02T10:13:13;99119.97;;;7.86;55.92
84615;BME280;74845;51.204;22.580;2024-03-02T10:15:41;99156.28;;;8.16;56.43
84615;BME280;74845;51.204;22.580;2024-03-02T10:18:09;99130.28;;;8.01;56.41
84615;BME280;74845;51.204;22.580;2024-03-02T10:20:39;99134.44;;;8.14;56.33
84615;BME280;74845;51.204;22.580;2024-03-02T10:23:10;99172.88;;;8.50;56.82
84615;BME280;74845;51.204;22.580;2024-03-02T10:25:38;99121.84;;;8.18;55.89
84615;BME280;74845;51.204;22.580;2024-03-02T10:28:17;99141.34;;;8.38;55.32
84615;BME280;74845;51.204;22.580;2024-03-02T10:30:47;99178.47;;;8.68;56.02
84615;BME280;74845;51.204;22.580;2024-03-02T10:33:17;99086.84;;;8.16;55.28
84615;BME280;74845;51.204;22.580;2024-03-02T10:35:44;99162.72;;;8.67;55.00
84615;BME280;74845;51.204;22.580;2024-03-02T10:38:11;99107.13;;;8.47;55.47
84615;BME280;74845;51.204;22.580;2024-03-02T10:40:38;99135.13;;;8.71;54.83
84615;BME280;74845;51.204;22.580;2024-03-02T10:43:05;99129.56;;;8.74;54.74
84615;BME280;74845;51.204;22.580;2024-03-02T10:45:33;99131.66;;;8.91;54.48
84615;BME280;74845;51.204;22.580;2024-03-02T10:48:01;99161.06;;;9.19;54.26
84615;BME280;74845;51.204;22.580;2024-03-02T10:50:29;99087.03;;;8.88;53.77
84615;BME280;74845;51.204;22.580;2024-03-02T10:52:57;99141.38;;;9.23;53.26
84615;BME280;74845;51.204;22.580;2024-03-02T10:55:23;99159.84;;;9.44;53.48
84615;BME280;74845;51.204;22.580;2024-03-02T10:57:52;99078.03;;;9.00;53.52
84615;BME280;74845;51.204;22.580;2024-03-02T11:00:25;99068.22;;;9.12;53.15
84615;BME280;74845;51.204;22.580;2024-03-02T11:02:57;99179.25;;;9.84;53.11
84615;BME280;74845;51.204;22.580;2024-03-02T11:05:30;99165.88;;;9.86;53.43
84615;BME280;74845;51.204;22.580;2024-03-02T11:08:08;99123.22;;;9.70;53.52
84615;BME280;74845;51.204;22.580;2024-03-02T11:10:37;99178.13;;;10.08;52.23
84615;BME280;74845;51.204;22.580;2024-03-02T11:13:14;99107.81;;;9.75;53.26
84615;BME280;74845;51.204;22.580;2024-03-02T11:15:43;99083.66;;;9.58;52.88
84615;BME280;74845;51.204;22.580;2024-03-02T11:18:11;99159.44;;;10.09;52.68
84615;BME280;74845;51.204;22.580;2024-03-02T11:20:39;99136.44;;;10.00;52.22
84615;BME280;74845;51.204;22.580;2024-03-02T11:23:08;99152.31;;;10.00;51.90
84615;BME280;74845;51.204;22.580;2024-03-02T11:25:36;99155.03;;;10.20;51.98
84615;BME280;74845;51.204;22.580;2024-03-02T11:28:07;99171.06;;;10.37;52.00
84615;BME280;74845;51.204;22.580;2024-03-02T11:33:08;99154.34;;;10.27;51.68
84615;BME280;74845;51.204;22.580;2024-03-02T11:35:41;99172.50;;;10.51;52.86
84615;BME280;74845;51.204;22.580;2024-03-02T11:38:15;99124.91;;;10.21;51.92
84615;BME280;74845;51.204;22.580;2024-03-02T11:40:42;99149.34;;;10.34;51.63
84615;BME280;74845;51.204;22.580;2024-03-02T11:43:10;99160.63;;;10.46;51.85
84615;BME280;74845;51.204;22.580;2024-03-02T11:45:38;99102.63;;;10.13;52.27
84615;BME280;74845;51.204;22.580;2024-03-02T11:48:08;99117.53;;;10.24;51.96
84615;BME280;74845;51.204;22.580;2024-03-02T11:50:47;99131.78;;;10.33;51.41
84615;BME280;74845;51.204;22.580;2024-03-02T11:53:16;99117.53;;;10.24;51.77
84615;BME280;74845;51.204;22.580;2024-03-02T11:55:44;99087.53;;;10.04;51.52
84615;BME280;74845;51.204;22.580;2024-03-02T11:58:15;99146.25;;;10.38;51.13
84615;BME280;74845;51.204;22.580;2024-03-02T12:00:50;99145.63;;;10.46;51.91
84615;BME280;74845;51.204;22.580;2024-03-02T12:03:20;99079.88;;;10.01;52.01
84615;BME280;74845;51.204;22.580;2024-03-02T12:05:52;99149.94;;;10.47;52.38
84615;BME280;74845;51.204;22.580;2024-03-02T12:08:19;99137.63;;;10.27;51.31
84615;BME280;74845;51.204;22.580;2024-03-02T12:11:05;99129.97;;;10.33;52.96
84615;BME280;74845;51.204;22.580;2024-03-02T12:13:33;99113.91;;;10.15;51.56
84615;BME280;74845;51.204;22.580;2024-03-02T12:16:00;99076.38;;;9.91;51.43
84615;BME280;74845;51.204;22.580;2024-03-02T12:18:27;99106.22;;;10.12;51.63
84615;BME280;74845;51.204;22.580;2024-03-02T12:20:54;99126.44;;;10.23;51.75
84615;BME280;74845;51.204;22.580;2024-03-02T12:23:25;99125.63;;;10.23;52.15
84615;BME280;74845;51.204;22.580;2024-03-02T12:25:52;99158.59;;;10.49;52.11
84615;BME280;74845;51.204;22.580;2024-03-02T12:28:19;99102.88;;;10.10;52.28
84615;BME280;74845;51.204;22.580;2024-03-02T12:30:46;99159.38;;;10.40;52.39
84615;BME280;74845;51.204;22.580;2024-03-02T12:33:14;99134.00;;;10.37;51.98
84615;BME280;74845;51.204;22.580;2024-03-02T12:35:41;99129.97;;;10.43;51.85
84615;BME280;74845;51.204;22.580;2024-03-02T12:38:09;99105.28;;;10.13;51.95
84615;BME280;74845;51.204;22.580;2024-03-02T12:40:37;99122.84;;;10.34;51.63
84615;BME280;74845;51.204;22.580;2024-03-02T12:43:05;99135.94;;;10.45;51.97
84615;BME280;74845;51.204;22.580;2024-03-02T12:45:34;99120.59;;;10.39;51.79
84615;BME280;74845;51.204;22.580;2024-03-02T12:48:01;99097.47;;;10.22;51.86
84615;BME280;74845;51.204;22.580;2024-03-02T12:50:28;99121.19;;;10.33;52.14
84615;BME280;74845;51.204;22.580;2024-03-02T12:52:55;99134.28;;;10.44;52.01
84615;BME280;74845;51.204;22.580;2024-03-02T12:55:23;99133.16;;;10.37;51.92
84615;BME280;74845;51.204;22.580;2024-03-02T12:57:53;99149.69;;;10.60;52.02
84615;BME280;74845;51.204;22.580;2024-03-02T13:00:21;99074.06;;;10.07;52.47
84615;BME280;74845;51.204;22.580;2024-03-02T13:02:50;99144.09;;;10.53;52.11
84615;BME280;74845;51.204;22.580;2024-03-02T13:05:18;99155.53;;;10.54;51.59
84615;BME280;74845;51.204;22.580;2024-03-02T13:07:47;99147.69;;;10.52;51.84
84615;BME280;74845;51.204;22.580;2024-03-02T13:10:15;99145.63;;;10.46;52.03